地図

経路データ

SID SEASON NUMBER BASIN SUBBASIN NAME ISO_TIME NATURE LAT LON WMO_WIND WMO_PRES WMO_AGENCY TRACK_TYPE DIST2LAND LANDFALL IFLAG USA_AGENCY USA_ATCF_ID USA_LAT USA_LON USA_RECORD USA_STATUS USA_WIND USA_PRES USA_SSHS USA_R34_NE USA_R34_SE USA_R34_SW USA_R34_NW USA_R50_NE USA_R50_SE USA_R50_SW USA_R50_NW USA_R64_NE USA_R64_SE USA_R64_SW USA_R64_NW USA_POCI USA_ROCI USA_RMW USA_EYE TOKYO_LAT TOKYO_LON TOKYO_GRADE TOKYO_WIND TOKYO_PRES TOKYO_R50_DIR TOKYO_R50_LONG TOKYO_R50_SHORT TOKYO_R30_DIR TOKYO_R30_LONG TOKYO_R30_SHORT TOKYO_LAND CMA_LAT CMA_LON CMA_CAT CMA_WIND CMA_PRES HKO_LAT HKO_LON HKO_CAT HKO_WIND HKO_PRES NEWDELHI_LAT NEWDELHI_LON NEWDELHI_GRADE NEWDELHI_WIND NEWDELHI_PRES NEWDELHI_CI NEWDELHI_DP NEWDELHI_POCI REUNION_LAT REUNION_LON REUNION_TYPE REUNION_WIND REUNION_PRES REUNION_TNUM REUNION_CI REUNION_RMW REUNION_R34_NE REUNION_R34_SE REUNION_R34_SW REUNION_R34_NW REUNION_R50_NE REUNION_R50_SE REUNION_R50_SW REUNION_R50_NW REUNION_R64_NE REUNION_R64_SE REUNION_R64_SW REUNION_R64_NW BOM_LAT BOM_LON BOM_TYPE BOM_WIND BOM_PRES BOM_TNUM BOM_CI BOM_RMW BOM_R34_NE BOM_R34_SE BOM_R34_SW BOM_R34_NW BOM_R50_NE BOM_R50_SE BOM_R50_SW BOM_R50_NW BOM_R64_NE BOM_R64_SE BOM_R64_SW BOM_R64_NW BOM_ROCI BOM_POCI BOM_EYE BOM_POS_METHOD BOM_PRES_METHOD NADI_LAT NADI_LON NADI_CAT NADI_WIND NADI_PRES WELLINGTON_LAT WELLINGTON_LON WELLINGTON_WIND WELLINGTON_PRES DS824_LAT DS824_LON DS824_STAGE DS824_WIND DS824_PRES TD9636_LAT TD9636_LON TD9636_STAGE TD9636_WIND TD9636_PRES TD9635_LAT TD9635_LON TD9635_WIND TD9635_PRES TD9635_ROCI NEUMANN_LAT NEUMANN_LON NEUMANN_CLASS NEUMANN_WIND NEUMANN_PRES MLC_LAT MLC_LON MLC_CLASS MLC_WIND MLC_PRES USA_GUST BOM_GUST BOM_GUST_PER REUNION_GUST REUNION_GUST_PER USA_SEAHGT USA_SEARAD_NE USA_SEARAD_SE USA_SEARAD_SW USA_SEARAD_NW STORM_SPEED STORM_DIR
1872071S05088 1872 10 SI MM NOT_NAMED 1872-03-11 06:00:00 NR -4.70000 87.5000 main 1233 1233 _____O________ -1 -4.70000 87.5000 99 9.90000 2 251
1872071S05088 1872 10 SI MM NOT_NAMED 1872-03-11 09:00:00 NR -4.72584 87.4238 main 1241 1241 _____P________ -1 -4.72584 87.4238 99 2 250
1872071S05088 1872 10 SI MM NOT_NAMED 1872-03-11 12:00:00 NR -4.75993 87.3358 main 1257 1257 _____P________ -1 -4.75993 87.3358 99 2 247
1872071S05088 1872 10 SI MM NOT_NAMED 1872-03-11 15:00:00 NR -4.81053 87.2243 main 1265 1265 _____P________ -1 -4.81053 87.2243 99 3 244
1872071S05088 1872 10 SI MM NOT_NAMED 1872-03-11 18:00:00 NR -4.88591 87.0775 main 1281 1281 _____P________ -1 -4.88591 87.0775 99 4 242
1872071S05088 1872 10 SI MM NOT_NAMED 1872-03-11 21:00:00 NR -4.99431 86.8836 main 1305 1305 _____P________ -1 -4.99431 86.8836 99 5 240
1872071S05088 1872 10 SI MM NOT_NAMED 1872-03-12 00:00:00 NR -5.14398 86.6307 main 1338 1338 _____P________ -1 -5.14398 86.6307 99 7 239
1872071S05088 1872 10 SI MM NOT_NAMED 1872-03-12 03:00:00 NR -5.34314 86.3069 main 1378 1378 _____P________ -1 -5.34314 86.3069 99 9 238
1872071S05088 1872 10 SI MM NOT_NAMED 1872-03-12 06:00:00 NR -5.60000 85.9000 main 1416 1412 _____O________ -1 -5.60000 85.9000 99 9.90000 11 237
1872071S05088 1872 10 SI MM NOT_NAMED 1872-03-12 09:00:00 NR -5.91957 85.4028 main 1425 1425 _____P________ -1 -5.91957 85.4028 99 13 237
1872071S05088 1872 10 SI MM NOT_NAMED 1872-03-12 12:00:00 NR -6.29426 84.8275 main 1444 1444 _____P________ -1 -6.29426 84.8275 99 14 237
1872071S05088 1872 10 SI MM NOT_NAMED 1872-03-12 15:00:00 NR -6.71330 84.1911 main 1467 1467 _____P________ -1 -6.71330 84.1911 99 16 236
1872071S05088 1872 10 SI MM NOT_NAMED 1872-03-12 18:00:00 NR -7.16593 83.5110 main 1502 1500 _____P________ -1 -7.16593 83.5110 99 17 236
1872071S05088 1872 10 SI MM NOT_NAMED 1872-03-12 21:00:00 NR -7.64145 82.8045 main 1532 1532 _____P________ -1 -7.64145 82.8045 99 17 236
1872071S05088 1872 10 SI MM NOT_NAMED 1872-03-13 00:00:00 NR -8.12923 82.0888 main 1577 1577 _____P________ -1 -8.12923 82.0888 99 17 235
1872071S05088 1872 10 SI MM NOT_NAMED 1872-03-13 03:00:00 NR -8.61883 81.3815 main 1627 1626 _____P________ -1 -8.61883 81.3815 99 17 235
1872071S05088 1872 10 SI MM NOT_NAMED 1872-03-13 06:00:00 NR -9.10000 80.7000 main 1680 1680 _____O________ -1 -9.10000 80.7000 99 9.90000 16 234
1872071S05088 1872 10 SI MM NOT_NAMED 1872-03-13 09:00:00 NR -9.52694 80.0933 main 1726 1726 _____P________ -1 -9.52694 80.0933 99 15 234
1872071S05088 1872 10 SI MM NOT_NAMED 1872-03-13 12:00:00 NR -9.95184 79.5012 main 1785 1785 _____P________ -1 -9.95184 79.5012 99 14 234
1872071S05088 1872 10 SI MM NOT_NAMED 1872-03-13 15:00:00 NR -10.3755 78.9245 main 1836 1836 _____P________ -1 -10.3755 78.9245 99 14 233
1872071S05088 1872 10 SI MM NOT_NAMED 1872-03-13 18:00:00 NR -10.7985 78.3640 main 1887 1887 _____P________ -1 -10.7985 78.3640 99 14 232
1872071S05088 1872 10 SI MM NOT_NAMED 1872-03-13 21:00:00 NR -11.2218 77.8204 main 1940 1940 _____P________ -1 -11.2218 77.8204 99 14 231
1872071S05088 1872 10 SI MM NOT_NAMED 1872-03-14 00:00:00 NR -11.6460 77.2946 main 1994 1994 _____P________ -1 -11.6460 77.2946 99 13 230
1872071S05088 1872 10 SI MM NOT_NAMED 1872-03-14 03:00:00 NR -12.0718 76.7875 main 2060 2060 _____P________ -1 -12.0718 76.7875 99 13 229
1872071S05088 1872 10 SI MM NOT_NAMED 1872-03-14 06:00:00 NR -12.5000 76.3000 reunion main 2115 2087 _____O________ -1 -12.5000 76.3000 99 9.90000 13 228
1872071S05088 1872 10 SI MM NOT_NAMED 1872-03-14 09:00:00 NR -12.9358 75.8089 main 2087 2024 _____P________ -1 -12.9358 75.8089 99 13 227
1872071S05088 1872 10 SI MM NOT_NAMED 1872-03-14 12:00:00 NR -13.3745 75.3368 main 2014 1956 _____P________ -1 -13.3745 75.3368 99 13 226
1872071S05088 1872 10 SI MM NOT_NAMED 1872-03-14 15:00:00 NR -13.8149 74.8836 main 1956 1899 _____P________ -1 -13.8149 74.8836 99 12 224
1872071S05088 1872 10 SI MM NOT_NAMED 1872-03-14 18:00:00 NR -14.2559 74.4492 main 1884 1837 _____P________ -1 -14.2559 74.4492 99 12 223
1872071S05088 1872 10 SI MM NOT_NAMED 1872-03-14 21:00:00 NR -14.6961 74.0336 main 1827 1781 _____P________ -1 -14.6961 74.0336 99 12 222
1872071S05088 1872 10 SI MM NOT_NAMED 1872-03-15 00:00:00 NR -15.1344 73.6368 main 1771 1724 _____P________ -1 -15.1344 73.6368 99 12 221
1872071S05088 1872 10 SI MM NOT_NAMED 1872-03-15 03:00:00 NR -15.5694 73.2589 main 1721 1665 _____P________ -1 -15.5694 73.2589 99 11 219
1872071S05088 1872 10 SI MM NOT_NAMED 1872-03-15 06:00:00 NR -16.0000 72.9000 reunion main 1665 1621 _____O________ -1 -16.0000 72.9000 99 9.90000 11 220
1872071S05088 1872 10 SI MM NOT_NAMED 1872-03-15 09:00:00 NR -16.3961 72.5474 main 1611 1567 _____P________ -1 -16.3961 72.5474 99 10 220
1872071S05088 1872 10 SI MM NOT_NAMED 1872-03-15 12:00:00 NR -16.7852 72.2159 main 1567 1524 _____P________ -1 -16.7852 72.2159 99 10 219
1872071S05088 1872 10 SI MM NOT_NAMED 1872-03-15 15:00:00 NR -17.1732 71.9025 main 1524 1484 _____P________ -1 -17.1732 71.9025 99 10 217
1872071S05088 1872 10 SI MM NOT_NAMED 1872-03-15 18:00:00 NR -17.5658 71.6042 main 1481 1443 _____P________ -1 -17.5658 71.6042 99 10 215
1872071S05088 1872 10 SI MM NOT_NAMED 1872-03-15 21:00:00 NR -17.9690 71.3179 main 1440 1411 _____P________ -1 -17.9690 71.3179 99 10 213
1872071S05088 1872 10 SI MM NOT_NAMED 1872-03-16 00:00:00 NR -18.3886 71.0406 main 1400 1372 _____P________ -1 -18.3886 71.0406 99 10 211
1872071S05088 1872 10 SI MM NOT_NAMED 1872-03-16 03:00:00 NR -18.8303 70.7690 main 1372 1332 _____P________ -1 -18.8303 70.7690 99 11 209
1872071S05088 1872 10 SI MM NOT_NAMED 1872-03-16 06:00:00 NR -19.3000 70.5000 reunion main 1332 1296 _____O________ -1 -19.3000 70.5000 99 9.90000 12 208
1872071S05088 1872 10 SI MM NOT_NAMED 1872-03-16 09:00:00 NR -19.8775 70.1877 main 1295 1260 _____P________ -1 -19.8775 70.1877 99 13 206
1872071S05088 1872 10 SI MM NOT_NAMED 1872-03-16 12:00:00 NR -20.4904 69.8758 main 1260 1229 _____P________ -1 -20.4904 69.8758 99 14 205
1872071S05088 1872 10 SI MM NOT_NAMED 1872-03-16 15:00:00 NR -21.1207 69.5691 main 1230 1202 _____P________ -1 -21.1207 69.5691 99 14 204
1872071S05088 1872 10 SI MM NOT_NAMED 1872-03-16 18:00:00 NR -21.7503 69.2727 main 1204 1181 _____P________ -1 -21.7503 69.2727 99 14 203
1872071S05088 1872 10 SI MM NOT_NAMED 1872-03-16 21:00:00 NR -22.3611 68.9919 main 1182 1163 _____P________ -1 -22.3611 68.9919 99 13 203
1872071S05088 1872 10 SI MM NOT_NAMED 1872-03-17 00:00:00 NR -22.9350 68.7323 main 1163 1153 _____P________ -1 -22.9350 68.7323 99 12 203
1872071S05088 1872 10 SI MM NOT_NAMED 1872-03-17 03:00:00 NR -23.4539 68.4997 main 1159 1149 _____P________ -1 -23.4539 68.4997 99 10 202
1872071S05088 1872 10 SI MM NOT_NAMED 1872-03-17 06:00:00 NR -23.9000 68.3000 reunion main 1153 1145 _____O________ -1 -23.9000 68.3000 99 9.90000 9 202
1872071S05088 1872 10 SI MM NOT_NAMED 1872-03-17 09:00:00 NR -24.2602 68.1376 main 1149 1147 _____P________ -1 -24.2602 68.1376 99 7 203
1872071S05088 1872 10 SI MM NOT_NAMED 1872-03-17 12:00:00 NR -24.5412 68.0098 main 1147 1146 _____P________ -1 -24.5412 68.0098 99 5 203
1872071S05088 1872 10 SI MM NOT_NAMED 1872-03-17 15:00:00 NR -24.7544 67.9119 main 1150 1145 _____P________ -1 -24.7544 67.9119 99 4 202
1872071S05088 1872 10 SI MM NOT_NAMED 1872-03-17 18:00:00 NR -24.9111 67.8392 main 1145 1145 _____P________ -1 -24.9111 67.8392 99 3 203
1872071S05088 1872 10 SI MM NOT_NAMED 1872-03-17 21:00:00 NR -25.0228 67.7866 main 1150 1150 _____P________ -1 -25.0228 67.7866 99 2 203
1872071S05088 1872 10 SI MM NOT_NAMED 1872-03-18 00:00:00 NR -25.1006 67.7493 main 1145 1145 _____P________ -1 -25.1006 67.7493 99 1 201
1872071S05088 1872 10 SI MM NOT_NAMED 1872-03-18 03:00:00 NR -25.1559 67.7221 main 1150 1150 _____P________ -1 -25.1559 67.7221 99 1 198
1872071S05088 1872 10 SI MM NOT_NAMED 1872-03-18 06:00:00 NR -25.2000 67.7000 reunion main 1150 _____O________ -1 -25.2000 67.7000 99 9.90000 1 0

IBTrACS Databaseについて

本データベースは、米国NOAAが公開する1842年以降の世界の熱帯低気圧のベストトラックデータアーカイブInternational Best Track Archive for Climate Stewardship (IBTrACS)を、ウェブで閲覧しやすい形式に変換したものです。

最終更新日:2021-12-03